createdAt,value
2017-11-17T00:01:54.595Z,7.20
2017-11-17T00:04:22.965Z,7.20
2017-11-17T00:06:51.276Z,7.20
2017-11-17T00:09:18.819Z,7.20
2017-11-17T00:11:49.186Z,7.20
2017-11-17T00:14:16.734Z,7.20
2017-11-17T00:16:44.287Z,7.20
2017-11-17T00:19:11.878Z,7.20
2017-11-17T00:21:39.423Z,7.20
2017-11-17T00:24:10.774Z,7.20
2017-11-17T00:26:38.317Z,7.20
2017-11-17T00:29:05.855Z,7.20
2017-11-17T00:31:33.460Z,7.20
2017-11-17T00:34:01.004Z,7.20
2017-11-17T00:36:28.557Z,7.30
2017-11-17T00:38:57.715Z,7.30
2017-11-17T00:41:26.031Z,7.30
2017-11-17T00:43:53.570Z,7.20
2017-11-17T00:46:21.187Z,7.30
2017-11-17T00:48:48.744Z,7.30
2017-11-17T00:51:16.299Z,7.30
2017-11-17T00:53:43.888Z,7.30
2017-11-17T00:56:12.211Z,7.30
2017-11-17T00:58:39.823Z,7.30
2017-11-17T01:01:08.136Z,7.30
2017-11-17T01:03:35.678Z,7.30
2017-11-17T01:06:04.045Z,7.30
2017-11-17T01:08:32.360Z,7.30
2017-11-17T01:10:59.904Z,7.30
2017-11-17T01:13:27.493Z,7.30
2017-11-17T01:15:55.075Z,7.30
2017-11-17T01:18:22.629Z,7.30
2017-11-17T01:20:50.216Z,7.30
2017-11-17T01:23:18.539Z,7.30
2017-11-17T01:25:46.167Z,7.30
2017-11-17T01:28:14.477Z,7.30
2017-11-17T01:30:42.040Z,7.30
2017-11-17T01:33:09.628Z,7.30
2017-11-17T01:35:37.214Z,7.30
2017-11-17T01:38:05.538Z,7.30
2017-11-17T01:40:38.387Z,7.30
2017-11-17T01:43:06.698Z,7.30
2017-11-17T01:45:34.242Z,7.30
2017-11-17T01:48:01.985Z,7.30
2017-11-17T01:50:30.305Z,7.30
2017-11-17T01:52:57.888Z,7.30
2017-11-17T01:55:25.444Z,7.30
2017-11-17T01:57:53.072Z,7.30
2017-11-17T02:00:20.634Z,7.30
2017-11-17T02:02:48.183Z,7.30
2017-11-17T02:05:15.827Z,7.30
2017-11-17T02:07:44.134Z,7.30
2017-11-17T02:10:11.716Z,7.30
2017-11-17T02:12:39.261Z,7.30
2017-11-17T02:15:06.855Z,7.30
2017-11-17T02:17:34.397Z,7.30
2017-11-17T02:20:01.979Z,7.30
2017-11-17T02:22:29.521Z,7.30
2017-11-17T02:24:57.209Z,7.30
2017-11-17T02:27:25.522Z,7.30
2017-11-17T02:29:53.132Z,7.30
2017-11-17T02:32:20.679Z,7.30
2017-11-17T02:34:48.219Z,7.30
2017-11-17T02:37:15.803Z,7.30
2017-11-17T02:39:43.375Z,7.30
2017-11-17T02:42:11.904Z,7.30
2017-11-17T02:44:39.455Z,7.30
2017-11-17T02:47:07.040Z,7.30
2017-11-17T02:49:34.586Z,7.30
2017-11-17T02:52:07.042Z,7.30
2017-11-17T02:54:34.616Z,7.30
2017-11-17T02:57:02.160Z,7.30
2017-11-17T02:59:30.075Z,7.30
2017-11-17T03:01:57.625Z,7.30
2017-11-17T03:04:25.213Z,7.20
2017-11-17T03:06:55.316Z,7.20
2017-11-17T03:09:22.921Z,7.20
2017-11-17T03:11:51.233Z,7.20
2017-11-17T03:14:18.779Z,7.20
2017-11-17T03:16:46.808Z,7.30
2017-11-17T03:19:14.362Z,7.30
2017-11-17T03:21:41.907Z,7.30
2017-11-17T03:24:09.535Z,7.30
2017-11-17T03:26:37.080Z,7.30
2017-11-17T03:29:04.703Z,7.30
2017-11-17T03:31:32.249Z,7.30
2017-11-17T03:33:59.844Z,7.30
2017-11-17T03:36:28.165Z,7.30
2017-11-17T03:39:00.907Z,7.30
2017-11-17T03:41:29.215Z,7.30
2017-11-17T03:43:56.759Z,7.30
2017-11-17T03:46:24.351Z,7.30
2017-11-17T03:48:51.940Z,7.30
2017-11-17T03:51:19.483Z,7.30
2017-11-17T03:53:47.067Z,7.30
2017-11-17T03:56:14.612Z,7.30
2017-11-17T03:58:42.199Z,7.30
2017-11-17T04:01:10.505Z,7.30
2017-11-17T04:03:38.095Z,7.30
2017-11-17T04:06:05.644Z,7.30
2017-11-17T04:08:33.636Z,7.30
2017-11-17T04:11:01.180Z,7.30
2017-11-17T04:13:28.722Z,7.30
2017-11-17T04:15:56.311Z,7.30
2017-11-17T04:18:24.175Z,7.30
2017-11-17T04:20:51.715Z,7.30
2017-11-17T04:23:19.702Z,7.30
2017-11-17T04:25:47.242Z,7.30
2017-11-17T04:28:14.782Z,7.30
2017-11-17T04:30:42.376Z,7.30
2017-11-17T04:33:10.115Z,7.30
2017-11-17T04:35:37.789Z,7.30
2017-11-17T04:38:05.774Z,7.30
2017-11-17T04:40:33.306Z,7.30
2017-11-17T04:43:00.850Z,7.30
2017-11-17T04:45:29.194Z,7.30
2017-11-17T04:47:56.799Z,7.30
2017-11-17T04:50:24.560Z,7.30
2017-11-17T04:52:52.103Z,7.30
2017-11-17T04:55:20.472Z,7.30
2017-11-17T04:57:48.019Z,7.30
2017-11-17T05:00:15.570Z,7.30
2017-11-17T05:02:43.164Z,7.30
2017-11-17T05:05:11.472Z,7.30
2017-11-17T05:07:39.834Z,7.30
2017-11-17T05:10:07.378Z,7.30
2017-11-17T05:12:35.682Z,7.30
2017-11-17T05:15:03.268Z,7.30
2017-11-17T05:17:30.894Z,7.30
2017-11-17T05:19:58.435Z,7.30
2017-11-17T05:22:26.791Z,7.20
2017-11-17T05:24:54.342Z,7.20
2017-11-17T05:27:21.952Z,7.20
2017-11-17T05:29:49.499Z,7.20
2017-11-17T05:32:17.819Z,7.10
2017-11-17T05:34:45.502Z,7.10
2017-11-17T05:37:13.185Z,7.10
2017-11-17T05:39:40.767Z,7.10
2017-11-17T05:42:09.120Z,7.10
2017-11-17T05:44:36.740Z,7.10
2017-11-17T05:47:04.326Z,7.00
2017-11-17T05:49:31.892Z,7.00
2017-11-17T05:51:59.731Z,7.00
2017-11-17T05:54:27.281Z,7.00
2017-11-17T05:56:54.823Z,6.90
2017-11-17T05:59:22.423Z,6.90
2017-11-17T06:01:50.855Z,6.80
2017-11-17T06:04:19.310Z,6.80
2017-11-17T06:06:46.858Z,6.70
2017-11-17T06:09:14.402Z,6.70
2017-11-17T06:11:41.982Z,6.70
2017-11-17T06:14:09.526Z,6.70
2017-11-17T06:16:37.186Z,6.60
2017-11-17T06:19:04.727Z,6.60
2017-11-17T06:21:32.450Z,6.60
2017-11-17T06:24:00.760Z,6.50
2017-11-17T06:26:28.308Z,6.50
2017-11-17T06:28:57.099Z,6.50
2017-11-17T06:31:24.715Z,6.50
2017-11-17T06:33:52.258Z,6.50
2017-11-17T06:36:19.880Z,6.50
2017-11-17T06:38:48.716Z,6.50
2017-11-17T06:41:16.288Z,6.50
2017-11-17T06:43:43.836Z,6.50
2017-11-17T06:46:11.463Z,6.50
2017-11-17T06:48:39.008Z,6.50
2017-11-17T06:51:06.558Z,6.50
2017-11-17T06:53:35.062Z,6.50
2017-11-17T06:56:03.994Z,6.50
2017-11-17T06:58:34.379Z,6.50
2017-11-17T07:01:01.922Z,6.60
2017-11-17T07:03:30.264Z,6.60
2017-11-17T07:05:57.815Z,6.60
2017-11-17T07:08:25.424Z,6.60
2017-11-17T07:10:53.016Z,6.60
2017-11-17T07:13:20.635Z,6.50
2017-11-17T07:15:48.984Z,6.50
2017-11-17T07:18:20.361Z,6.50
2017-11-17T07:20:48.667Z,6.50
2017-11-17T07:23:16.279Z,6.50
2017-11-17T07:25:43.830Z,6.40
2017-11-17T07:28:11.384Z,6.40
2017-11-17T07:30:39.026Z,6.40
2017-11-17T07:33:06.613Z,6.30
2017-11-17T07:35:34.179Z,6.30
2017-11-17T07:38:07.408Z,6.30
2017-11-17T07:40:34.975Z,6.30
2017-11-17T07:43:04.787Z,6.30
2017-11-17T07:59:49.168Z,6.30
2017-11-17T08:02:17.138Z,6.30
2017-11-17T08:04:44.706Z,6.30
2017-11-17T08:07:12.290Z,6.30
2017-11-17T08:09:40.013Z,6.40
2017-11-17T08:12:07.553Z,6.40
2017-11-17T08:14:35.101Z,6.50
2017-11-17T08:17:18.714Z,6.50
2017-11-17T08:19:46.252Z,6.60
2017-11-17T08:22:13.796Z,6.60
2017-11-17T08:24:41.405Z,6.60
2017-11-17T08:27:08.962Z,6.70
2017-11-17T08:29:37.343Z,6.80
2017-11-17T08:32:05.692Z,6.90
2017-11-17T08:34:33.254Z,6.80
2017-11-17T08:37:01.101Z,6.90
2017-11-17T08:39:28.653Z,6.90
2017-11-17T08:41:56.238Z,7.00
2017-11-17T08:44:23.804Z,7.00
2017-11-17T08:46:51.410Z,7.00
2017-11-17T08:49:18.954Z,7.10
2017-11-17T08:51:46.498Z,7.10
2017-11-17T08:54:14.752Z,7.10
2017-11-17T08:56:42.298Z,7.20
2017-11-17T08:59:09.843Z,7.20
2017-11-17T09:01:37.465Z,7.30
2017-11-17T09:04:05.887Z,7.30
2017-11-17T09:06:33.506Z,7.30
2017-11-17T09:09:01.835Z,7.40
2017-11-17T09:11:29.390Z,7.40
2017-11-17T09:13:57.090Z,7.40
2017-11-17T09:16:24.630Z,7.40
2017-11-17T09:18:52.171Z,7.50
2017-11-17T09:21:19.766Z,7.50
2017-11-17T09:23:47.348Z,7.60
2017-11-17T09:26:15.654Z,7.60
2017-11-17T09:28:43.394Z,7.60
2017-11-17T09:31:11.003Z,7.70
2017-11-17T09:33:38.545Z,7.60
2017-11-17T09:36:06.134Z,7.70
2017-11-17T09:38:33.862Z,7.70
2017-11-17T09:41:01.407Z,7.70
2017-11-17T09:43:29.070Z,7.70
2017-11-17T09:45:56.622Z,7.80
2017-11-17T09:48:24.978Z,7.90
2017-11-17T09:50:52.525Z,7.90
2017-11-17T09:53:20.122Z,7.90
2017-11-17T09:55:48.494Z,8.00
2017-11-17T09:58:16.808Z,8.00
2017-11-17T10:00:44.364Z,8.00
2017-11-17T10:03:12.895Z,8.10
2017-11-17T10:05:40.433Z,8.10
2017-11-17T10:08:07.983Z,8.20
2017-11-17T10:10:35.566Z,8.30
2017-11-17T10:13:03.171Z,8.30
2017-11-17T10:15:30.717Z,8.40
2017-11-17T10:17:59.171Z,8.50
2017-11-17T10:20:26.718Z,8.50
2017-11-17T10:22:54.324Z,8.60
2017-11-17T10:25:22.631Z,8.70
2017-11-17T10:27:50.199Z,8.70
2017-11-17T10:30:17.791Z,8.70
2017-11-17T10:32:45.340Z,8.80
2017-11-17T10:35:12.981Z,8.80
2017-11-17T10:37:40.929Z,8.90
2017-11-17T10:40:08.508Z,8.90
2017-11-17T10:42:36.093Z,8.90
2017-11-17T10:45:03.637Z,8.90
2017-11-17T10:47:31.239Z,8.90
2017-11-17T10:49:58.769Z,8.90
2017-11-17T10:52:26.307Z,9.00
2017-11-17T10:54:55.246Z,9.00
2017-11-17T10:57:22.783Z,8.90
2017-11-17T10:59:50.331Z,8.90
2017-11-17T11:02:17.915Z,8.80
2017-11-17T11:04:45.481Z,8.80
2017-11-17T11:07:13.082Z,8.80
2017-11-17T11:09:40.617Z,8.80
2017-11-17T11:12:10.292Z,8.70
2017-11-17T11:14:37.843Z,8.60
2017-11-17T11:17:05.438Z,8.60
2017-11-17T11:19:32.983Z,8.70
2017-11-17T11:22:00.582Z,8.70
2017-11-17T11:24:28.119Z,8.80
2017-11-17T11:26:55.664Z,8.80
2017-11-17T11:29:27.015Z,8.90
2017-11-17T11:31:54.617Z,9.00
2017-11-17T11:34:22.287Z,9.00
2017-11-17T11:36:49.835Z,9.10
2017-11-17T11:39:17.443Z,9.20
2017-11-17T11:41:44.987Z,9.20
2017-11-17T11:44:12.528Z,9.20
2017-11-17T11:46:40.372Z,9.10
2017-11-17T11:49:07.907Z,9.00
2017-11-17T11:51:35.447Z,8.90
2017-11-17T11:54:03.107Z,8.80
2017-11-17T11:56:30.700Z,8.70
2017-11-17T11:58:59.003Z,8.60
2017-11-17T12:01:26.547Z,8.60
2017-11-17T12:03:54.230Z,8.50
2017-11-17T12:06:21.832Z,8.50
2017-11-17T12:08:49.379Z,8.60
2017-11-17T12:11:16.911Z,8.60
2017-11-17T12:13:44.493Z,8.70
2017-11-17T12:16:12.039Z,8.70
2017-11-17T12:18:39.593Z,8.80
2017-11-17T12:21:07.347Z,8.80
2017-11-17T12:23:34.880Z,8.90
2017-11-17T12:26:02.419Z,9.00
2017-11-17T12:28:29.999Z,9.10
2017-11-17T12:30:57.578Z,9.10
2017-11-17T12:33:25.930Z,9.00
2017-11-17T12:35:53.471Z,9.00
2017-11-17T12:38:21.072Z,8.90
2017-11-17T12:40:49.428Z,8.70
2017-11-17T12:43:17.107Z,8.70
2017-11-17T12:45:45.418Z,8.60
2017-11-17T12:48:12.976Z,8.60
2017-11-17T12:50:40.583Z,8.60
2017-11-17T12:53:08.112Z,8.70
2017-11-17T12:55:35.849Z,8.70
2017-11-17T12:58:03.436Z,8.80
2017-11-17T13:00:31.041Z,8.90
2017-11-17T13:02:58.601Z,9.00
2017-11-17T13:05:26.147Z,9.00
2017-11-17T13:07:53.749Z,9.00
2017-11-17T13:10:21.317Z,9.00
2017-11-17T13:12:48.947Z,9.10
2017-11-17T13:15:16.488Z,9.10
2017-11-17T13:17:44.029Z,9.00
2017-11-17T13:20:11.600Z,9.00
2017-11-17T13:22:39.316Z,8.90
2017-11-17T13:25:06.859Z,8.80
2017-11-17T13:27:35.239Z,8.60
2017-11-17T13:30:03.544Z,8.40
2017-11-17T13:32:31.074Z,8.40
2017-11-17T13:34:59.422Z,8.30
2017-11-17T13:37:27.136Z,8.30
2017-11-17T13:39:54.714Z,8.30
2017-11-17T13:42:22.269Z,8.30
2017-11-17T13:44:49.895Z,8.30
2017-11-17T13:47:18.204Z,8.30
2017-11-17T13:49:45.746Z,8.30
2017-11-17T13:52:14.142Z,8.30
2017-11-17T13:54:41.683Z,8.30
2017-11-17T13:57:15.163Z,8.40
2017-11-17T13:59:43.505Z,8.40
2017-11-17T14:02:11.044Z,8.40
2017-11-17T14:04:38.643Z,8.40
2017-11-17T14:07:06.602Z,8.40
2017-11-17T14:09:34.135Z,8.40
2017-11-17T14:12:01.723Z,8.40
2017-11-17T14:14:29.284Z,8.50
2017-11-17T14:16:56.942Z,8.50
2017-11-17T14:19:24.489Z,8.40
2017-11-17T14:21:52.127Z,8.40
2017-11-17T14:24:19.681Z,8.40
2017-11-17T14:26:47.259Z,8.30
2017-11-17T14:29:14.798Z,8.30
2017-11-17T14:31:42.382Z,8.30
2017-11-17T14:34:09.928Z,8.20
2017-11-17T14:36:37.501Z,8.20
2017-11-17T14:39:05.036Z,8.10
2017-11-17T14:41:33.424Z,8.10
2017-11-17T14:44:00.978Z,8.10
2017-11-17T14:46:29.274Z,8.00
2017-11-17T14:48:56.863Z,8.00
2017-11-17T14:51:24.410Z,8.00
2017-11-17T14:53:51.951Z,7.90
2017-11-17T14:56:19.530Z,7.90
2017-11-17T14:58:47.311Z,7.90
2017-11-17T15:01:14.915Z,7.90
2017-11-17T15:03:43.216Z,7.80
2017-11-17T15:06:10.754Z,7.80
2017-11-17T15:08:39.395Z,7.80
2017-11-17T15:11:07.104Z,7.80
2017-11-17T15:13:35.405Z,7.70
2017-11-17T15:16:02.958Z,7.70
2017-11-17T15:18:30.540Z,7.70
2017-11-17T15:20:58.128Z,7.60
2017-11-17T15:23:25.662Z,7.60
2017-11-17T15:25:56.927Z,7.50
2017-11-17T15:28:24.463Z,7.50
2017-11-17T15:30:57.426Z,7.50
2017-11-17T15:33:25.002Z,7.40
2017-11-17T15:35:52.577Z,7.30
2017-11-17T15:38:20.115Z,7.30
2017-11-17T15:40:47.662Z,7.20
2017-11-17T15:43:15.239Z,7.10
2017-11-17T15:45:42.809Z,7.00
2017-11-17T15:48:11.873Z,6.90
2017-11-17T15:50:39.482Z,6.90
2017-11-17T15:53:07.014Z,6.80
2017-11-17T15:55:34.552Z,6.70
2017-11-17T15:58:02.184Z,6.60
2017-11-17T16:00:33.743Z,6.50
2017-11-17T16:03:01.291Z,6.50
2017-11-17T16:05:29.010Z,6.50
2017-11-17T16:07:56.553Z,6.40
2017-11-17T16:10:24.899Z,6.40
2017-11-17T16:12:52.433Z,6.40
2017-11-17T16:15:20.023Z,6.30
2017-11-17T16:17:47.568Z,6.30
2017-11-17T16:20:15.111Z,6.20
2017-11-17T16:22:42.755Z,6.10
2017-11-17T16:25:10.354Z,6.10
2017-11-17T16:27:37.896Z,6.00
2017-11-17T16:30:05.439Z,5.90
2017-11-17T16:32:33.019Z,5.80
2017-11-17T16:35:00.616Z,5.80
2017-11-17T16:37:28.962Z,5.60
2017-11-17T16:39:56.495Z,5.60
2017-11-17T16:42:24.183Z,5.60
2017-11-17T16:44:51.746Z,5.50
2017-11-17T16:47:19.282Z,5.50
2017-11-17T16:49:48.063Z,5.40
2017-11-17T16:52:15.599Z,5.30
2017-11-17T16:54:43.945Z,5.20
2017-11-17T16:57:11.490Z,5.20
2017-11-17T16:59:39.133Z,5.20
2017-11-17T17:02:06.785Z,5.10
2017-11-17T17:04:34.374Z,5.00
2017-11-17T17:07:01.916Z,5.00
2017-11-17T17:09:29.498Z,4.90
2017-11-17T17:11:57.047Z,4.90
2017-11-17T17:14:24.626Z,4.90
2017-11-17T17:16:52.160Z,4.80
2017-11-17T17:19:19.701Z,4.80
2017-11-17T17:21:47.820Z,4.70
2017-11-17T17:24:15.356Z,4.70
2017-11-17T17:26:42.893Z,4.60
2017-11-17T17:29:10.470Z,4.60
2017-11-17T17:31:38.021Z,4.50
2017-11-17T17:34:05.615Z,4.50
2017-11-17T17:36:33.226Z,4.40
2017-11-17T17:39:00.848Z,4.40
2017-11-17T17:41:28.374Z,4.40
2017-11-17T17:43:56.007Z,4.30
2017-11-17T17:46:23.543Z,4.30
2017-11-17T17:48:51.891Z,4.20
2017-11-17T17:51:19.437Z,4.20
2017-11-17T17:53:53.146Z,4.20
2017-11-17T17:56:21.014Z,4.10
2017-11-17T17:58:48.723Z,4.10
2017-11-17T18:01:17.030Z,4.00
2017-11-17T18:03:44.637Z,4.00
2017-11-17T18:06:13.018Z,3.90
2017-11-17T18:08:40.581Z,3.90
2017-11-17T18:11:13.343Z,3.90
2017-11-17T18:13:40.889Z,3.90
2017-11-17T18:16:08.428Z,3.80
2017-11-17T18:18:36.125Z,3.70
2017-11-17T18:21:04.955Z,3.70
2017-11-17T18:23:33.258Z,3.60
2017-11-17T18:26:00.817Z,3.60
2017-11-17T18:28:28.544Z,3.60
2017-11-17T18:30:56.092Z,3.60
2017-11-17T18:33:23.618Z,3.60
2017-11-17T18:35:51.497Z,3.50
2017-11-17T18:38:19.041Z,3.50
2017-11-17T18:40:46.582Z,3.40
2017-11-17T18:43:14.214Z,3.40
2017-11-17T18:45:42.516Z,3.30
2017-11-17T18:48:10.156Z,3.30
2017-11-17T18:50:37.714Z,3.20
2017-11-17T18:53:06.063Z,3.10
2017-11-17T18:55:33.599Z,3.10
2017-11-17T18:58:01.343Z,3.10
2017-11-17T19:00:29.674Z,3.00
2017-11-17T19:02:57.305Z,3.00
2017-11-17T19:05:24.822Z,3.00
2017-11-17T19:07:53.170Z,2.90
2017-11-17T19:10:20.703Z,2.90
2017-11-17T19:12:48.593Z,2.90
2017-11-17T19:15:16.126Z,2.80
2017-11-17T19:17:43.666Z,2.80
2017-11-17T19:20:11.254Z,2.80
2017-11-17T19:22:38.867Z,2.70
2017-11-17T19:25:07.170Z,2.70
2017-11-17T19:27:34.762Z,2.70
2017-11-17T19:30:02.294Z,2.70
2017-11-17T19:32:29.949Z,2.70
2017-11-17T19:34:58.283Z,2.70
2017-11-17T19:37:25.817Z,2.60
2017-11-17T19:39:53.399Z,2.60
2017-11-17T19:42:20.982Z,2.60
2017-11-17T19:44:49.277Z,2.60
2017-11-17T19:47:16.850Z,2.60
2017-11-17T19:49:44.382Z,2.50
2017-11-17T19:52:12.914Z,2.50
2017-11-17T19:54:40.452Z,2.50
2017-11-17T19:57:13.275Z,2.50
2017-11-17T19:59:41.602Z,2.50
2017-11-17T20:02:09.211Z,2.40
2017-11-17T20:04:36.752Z,2.40
2017-11-17T20:07:04.652Z,2.40
2017-11-17T20:09:32.189Z,2.40
2017-11-17T20:11:59.888Z,2.40
2017-11-17T20:14:27.425Z,2.40
2017-11-17T20:16:54.963Z,2.40
2017-11-17T20:19:22.550Z,2.40
2017-11-17T20:21:50.147Z,2.40
2017-11-17T20:24:18.452Z,2.30
2017-11-17T20:26:50.027Z,2.30
2017-11-17T20:29:17.570Z,2.30
2017-11-17T20:31:45.183Z,2.20
2017-11-17T20:34:13.495Z,2.20
2017-11-17T20:36:41.042Z,2.10
2017-11-17T20:39:08.667Z,2.10
2017-11-17T20:41:36.202Z,2.10
2017-11-17T20:44:03.738Z,2.10
2017-11-17T20:46:31.316Z,2.10
2017-11-17T20:48:58.856Z,2.00
2017-11-17T20:51:30.376Z,2.00
2017-11-17T20:53:58.679Z,1.90
2017-11-17T20:56:26.220Z,1.90
2017-11-17T20:58:55.090Z,1.90
2017-11-17T21:01:22.777Z,1.90
2017-11-17T21:03:50.481Z,1.90
2017-11-17T21:06:18.204Z,1.90
2017-11-17T21:08:45.783Z,1.90
2017-11-17T21:11:13.338Z,1.90
2017-11-17T21:13:46.183Z,1.90
2017-11-17T21:16:13.781Z,1.90
2017-11-17T21:18:41.327Z,1.80
2017-11-17T21:21:09.631Z,1.80
2017-11-17T21:23:37.385Z,1.70
2017-11-17T21:26:04.951Z,1.70
2017-11-17T21:28:32.490Z,1.70
2017-11-17T21:31:00.930Z,1.60
2017-11-17T21:33:28.457Z,1.60
2017-11-17T21:35:55.996Z,1.60
2017-11-17T21:38:23.607Z,1.60
2017-11-17T21:40:51.150Z,1.50
2017-11-17T21:43:18.718Z,1.50
2017-11-17T21:45:46.314Z,1.50
2017-11-17T21:48:13.850Z,1.50
2017-11-17T21:50:41.445Z,1.50
2017-11-17T21:53:09.751Z,1.40
2017-11-17T21:55:37.330Z,1.40
2017-11-17T21:58:04.872Z,1.40
2017-11-17T22:00:32.824Z,1.40
2017-11-17T22:03:00.372Z,1.40
2017-11-17T22:05:28.730Z,1.30
2017-11-17T22:07:56.266Z,1.30
2017-11-17T22:10:23.900Z,1.30
2017-11-17T22:12:52.205Z,1.30
2017-11-17T22:15:19.778Z,1.30
2017-11-17T22:17:47.310Z,1.30
2017-11-17T22:20:14.889Z,1.30
2017-11-17T22:22:42.430Z,1.30
2017-11-17T22:25:10.006Z,1.20
2017-11-17T22:27:37.544Z,1.20
2017-11-17T22:30:06.473Z,1.20
2017-11-17T22:32:34.011Z,1.20
2017-11-17T22:35:01.630Z,1.20
2017-11-17T22:37:29.174Z,1.20
2017-11-17T22:39:57.478Z,1.10
2017-11-17T22:42:25.059Z,1.10
2017-11-17T22:44:52.634Z,1.10
2017-11-17T22:47:20.174Z,1.10
2017-11-17T22:49:47.775Z,1.00
2017-11-17T22:52:15.315Z,1.00
2017-11-17T22:54:42.842Z,1.00
2017-11-17T22:57:14.543Z,1.00
2017-11-17T22:59:42.100Z,1.00
2017-11-17T23:02:09.633Z,0.90
2017-11-17T23:04:37.208Z,0.90
2017-11-17T23:07:04.771Z,0.80
2017-11-17T23:09:32.343Z,0.80
2017-11-17T23:11:59.873Z,0.80
2017-11-17T23:14:27.567Z,0.80
2017-11-17T23:16:55.107Z,0.80
2017-11-17T23:19:22.638Z,0.80
2017-11-17T23:21:50.214Z,0.80
2017-11-17T23:24:17.795Z,0.80
2017-11-17T23:26:45.336Z,0.80
2017-11-17T23:29:12.919Z,0.80
2017-11-17T23:31:40.499Z,0.80
2017-11-17T23:34:08.232Z,0.80
2017-11-17T23:36:35.923Z,0.80
2017-11-17T23:39:03.458Z,0.80
2017-11-17T23:41:31.001Z,0.80
2017-11-17T23:43:58.714Z,0.80
2017-11-17T23:46:26.251Z,0.80
2017-11-17T23:48:53.786Z,0.70
2017-11-17T23:51:21.440Z,0.70
2017-11-17T23:53:49.022Z,0.70
2017-11-17T23:56:16.702Z,0.70
2017-11-17T23:58:44.663Z,0.70
